sensor_id;sensor_type;location;lat;lon;timestamp;temperature;humidity
11043;DHT22;5574;48.786;10.120;2022-08-20T00:00:41;18.60;99.90
11043;DHT22;5574;48.786;10.120;2022-08-20T00:03:12;18.60;99.90
11043;DHT22;5574;48.786;10.120;2022-08-20T00:05:43;18.70;99.90
11043;DHT22;5574;48.786;10.120;2022-08-20T00:08:10;18.70;99.90
11043;DHT22;5574;48.786;10.120;2022-08-20T00:10:40;18.60;99.90
11043;DHT22;5574;48.786;10.120;2022-08-20T00:13:09;18.60;99.90
11043;DHT22;5574;48.786;10.120;2022-08-20T00:15:38;18.60;99.90
11043;DHT22;5574;48.786;10.120;2022-08-20T00:18:06;18.60;99.90
11043;DHT22;5574;48.786;10.120;2022-08-20T00:20:35;18.50;99.90
11043;DHT22;5574;48.786;10.120;2022-08-20T00:23:04;18.50;99.90
11043;DHT22;5574;48.786;10.120;2022-08-20T00:25:31;18.50;99.90
11043;DHT22;5574;48.786;10.120;2022-08-20T00:27:58;18.50;99.90
11043;DHT22;5574;48.786;10.120;2022-08-20T00:30:28;18.50;99.90
11043;DHT22;5574;48.786;10.120;2022-08-20T00:32:58;18.50;99.90
11043;DHT22;5574;48.786;10.120;2022-08-20T00:35:27;18.50;99.90
11043;DHT22;5574;48.786;10.120;2022-08-20T00:37:54;18.50;99.90
11043;DHT22;5574;48.786;10.120;2022-08-20T00:40:26;18.50;99.90
11043;DHT22;5574;48.786;10.120;2022-08-20T00:42:57;18.50;99.90
11043;DHT22;5574;48.786;10.120;2022-08-20T00:45:27;18.50;99.90
11043;DHT22;5574;48.786;10.120;2022-08-20T00:47:54;18.40;99.90
11043;DHT22;5574;48.786;10.120;2022-08-20T00:50:24;18.40;99.90
11043;DHT22;5574;48.786;10.120;2022-08-20T00:52:52;18.50;99.90
11043;DHT22;5574;48.786;10.120;2022-08-20T00:55:22;18.50;99.90
11043;DHT22;5574;48.786;10.120;2022-08-20T00:57:52;18.50;99.90
11043;DHT22;5574;48.786;10.120;2022-08-20T01:00:23;18.50;99.90
11043;DHT22;5574;48.786;10.120;2022-08-20T01:02:50;18.50;99.90
11043;DHT22;5574;48.786;10.120;2022-08-20T01:05:17;18.40;99.90
11043;DHT22;5574;48.786;10.120;2022-08-20T01:07:48;18.40;99.90
11043;DHT22;5574;48.786;10.120;2022-08-20T01:10:17;18.40;99.90
11043;DHT22;5574;48.786;10.120;2022-08-20T01:12:47;18.40;99.90
11043;DHT22;5574;48.786;10.120;2022-08-20T01:15:16;18.40;99.90
11043;DHT22;5574;48.786;10.120;2022-08-20T01:17:46;18.40;99.90
11043;DHT22;5574;48.786;10.120;2022-08-20T01:20:17;18.40;99.90
11043;DHT22;5574;48.786;10.120;2022-08-20T01:22:49;18.40;99.90
11043;DHT22;5574;48.786;10.120;2022-08-20T01:25:44;18.40;99.90
11043;DHT22;5574;48.786;10.120;2022-08-20T01:28:13;18.30;99.90
11043;DHT22;5574;48.786;10.120;2022-08-20T01:30:41;18.30;99.90
11043;DHT22;5574;48.786;10.120;2022-08-20T01:33:08;18.30;99.90
11043;DHT22;5574;48.786;10.120;2022-08-20T01:35:36;18.30;99.90
11043;DHT22;5574;48.786;10.120;2022-08-20T01:38:03;18.30;99.90
11043;DHT22;5574;48.786;10.120;2022-08-20T01:40:47;18.30;99.90
11043;DHT22;5574;48.786;10.120;2022-08-20T01:43:17;18.30;99.90
11043;DHT22;5574;48.786;10.120;2022-08-20T01:45:43;18.30;99.90
11043;DHT22;5574;48.786;10.120;2022-08-20T01:48:12;18.30;99.90
11043;DHT22;5574;48.786;10.120;2022-08-20T01:50:41;18.30;99.90
11043;DHT22;5574;48.786;10.120;2022-08-20T01:53:17;18.30;99.90
11043;DHT22;5574;48.786;10.120;2022-08-20T01:55:47;18.40;99.90
11043;DHT22;5574;48.786;10.120;2022-08-20T01:58:14;18.30;99.90
11043;DHT22;5574;48.786;10.120;2022-08-20T02:00:41;18.30;99.90
11043;DHT22;5574;48.786;10.120;2022-08-20T02:03:07;18.30;99.90
11043;DHT22;5574;48.786;10.120;2022-08-20T02:05:34;18.30;99.90
11043;DHT22;5574;48.786;10.120;2022-08-20T02:08:02;18.30;99.90
11043;DHT22;5574;48.786;10.120;2022-08-20T02:10:29;18.30;99.90
11043;DHT22;5574;48.786;10.120;2022-08-20T02:12:58;18.20;99.90
11043;DHT22;5574;48.786;10.120;2022-08-20T02:15:25;18.20;99.90
11043;DHT22;5574;48.786;10.120;2022-08-20T02:17:52;18.20;99.90
11043;DHT22;5574;48.786;10.120;2022-08-20T02:20:23;18.20;99.90
11043;DHT22;5574;48.786;10.120;2022-08-20T02:22:55;18.20;99.90
11043;DHT22;5574;48.786;10.120;2022-08-20T02:25:24;18.10;99.90
11043;DHT22;5574;48.786;10.120;2022-08-20T02:27:53;18.20;99.90
11043;DHT22;5574;48.786;10.120;2022-08-20T02:30:25;18.10;99.90
11043;DHT22;5574;48.786;10.120;2022-08-20T02:32:52;18.20;99.90
11043;DHT22;5574;48.786;10.120;2022-08-20T02:35:19;18.10;99.90
11043;DHT22;5574;48.786;10.120;2022-08-20T02:37:46;18.20;99.90
11043;DHT22;5574;48.786;10.120;2022-08-20T02:40:16;18.20;99.90
11043;DHT22;5574;48.786;10.120;2022-08-20T02:42:44;18.20;99.90
11043;DHT22;5574;48.786;10.120;2022-08-20T02:45:15;18.20;99.90
11043;DHT22;5574;48.786;10.120;2022-08-20T02:47:44;18.10;99.90
11043;DHT22;5574;48.786;10.120;2022-08-20T02:50:12;18.10;99.90
11043;DHT22;5574;48.786;10.120;2022-08-20T02:52:40;18.10;99.90
11043;DHT22;5574;48.786;10.120;2022-08-20T02:55:07;18.10;99.90
11043;DHT22;5574;48.786;10.120;2022-08-20T02:57:34;18.00;99.90
11043;DHT22;5574;48.786;10.120;2022-08-20T03:00:04;17.90;99.90
11043;DHT22;5574;48.786;10.120;2022-08-20T03:02:32;18.00;99.90
11043;DHT22;5574;48.786;10.120;2022-08-20T03:05:00;17.90;99.90
11043;DHT22;5574;48.786;10.120;2022-08-20T03:07:27;17.80;99.90
11043;DHT22;5574;48.786;10.120;2022-08-20T03:09:54;17.90;99.90
11043;DHT22;5574;48.786;10.120;2022-08-20T03:12:20;17.80;99.90
11043;DHT22;5574;48.786;10.120;2022-08-20T03:14:47;17.80;99.90
11043;DHT22;5574;48.786;10.120;2022-08-20T03:17:14;17.80;99.90
11043;DHT22;5574;48.786;10.120;2022-08-20T03:19:41;17.80;99.90
11043;DHT22;5574;48.786;10.120;2022-08-20T03:22:09;17.80;99.90
11043;DHT22;5574;48.786;10.120;2022-08-20T03:24:35;17.80;99.90
11043;DHT22;5574;48.786;10.120;2022-08-20T03:27:02;17.90;99.90
11043;DHT22;5574;48.786;10.120;2022-08-20T03:29:29;17.90;99.90
11043;DHT22;5574;48.786;10.120;2022-08-20T03:31:56;18.00;99.90
11043;DHT22;5574;48.786;10.120;2022-08-20T03:34:23;17.90;99.90
11043;DHT22;5574;48.786;10.120;2022-08-20T03:36:50;17.90;99.90
11043;DHT22;5574;48.786;10.120;2022-08-20T03:39:18;17.90;99.90
11043;DHT22;5574;48.786;10.120;2022-08-20T03:41:45;17.90;99.90
11043;DHT22;5574;48.786;10.120;2022-08-20T03:44:12;17.90;99.90
11043;DHT22;5574;48.786;10.120;2022-08-20T03:46:38;17.90;99.90
11043;DHT22;5574;48.786;10.120;2022-08-20T03:49:05;18.00;99.90
11043;DHT22;5574;48.786;10.120;2022-08-20T03:51:32;17.90;99.90
11043;DHT22;5574;48.786;10.120;2022-08-20T03:53:59;17.90;99.90
11043;DHT22;5574;48.786;10.120;2022-08-20T03:56:27;18.00;99.90
11043;DHT22;5574;48.786;10.120;2022-08-20T03:58:54;18.00;99.90
11043;DHT22;5574;48.786;10.120;2022-08-20T04:01:21;18.00;99.90
11043;DHT22;5574;48.786;10.120;2022-08-20T04:03:48;18.00;99.90
11043;DHT22;5574;48.786;10.120;2022-08-20T04:06:15;18.00;99.90
11043;DHT22;5574;48.786;10.120;2022-08-20T04:08:42;18.00;99.90
11043;DHT22;5574;48.786;10.120;2022-08-20T04:11:09;18.00;99.90
11043;DHT22;5574;48.786;10.120;2022-08-20T04:13:37;18.00;99.90
11043;DHT22;5574;48.786;10.120;2022-08-20T04:16:04;18.00;99.90
11043;DHT22;5574;48.786;10.120;2022-08-20T04:18:34;18.00;99.90
11043;DHT22;5574;48.786;10.120;2022-08-20T04:21:02;18.00;99.90
11043;DHT22;5574;48.786;10.120;2022-08-20T04:23:29;18.10;99.90
11043;DHT22;5574;48.786;10.120;2022-08-20T04:25:56;18.10;99.90
11043;DHT22;5574;48.786;10.120;2022-08-20T04:28:24;18.10;99.90
11043;DHT22;5574;48.786;10.120;2022-08-20T04:30:56;18.10;99.90
11043;DHT22;5574;48.786;10.120;2022-08-20T04:33:23;18.10;99.90
11043;DHT22;5574;48.786;10.120;2022-08-20T04:35:52;18.10;99.90
11043;DHT22;5574;48.786;10.120;2022-08-20T04:38:20;18.10;99.90
11043;DHT22;5574;48.786;10.120;2022-08-20T04:40:47;18.20;99.90
11043;DHT22;5574;48.786;10.120;2022-08-20T04:43:23;18.10;99.90
11043;DHT22;5574;48.786;10.120;2022-08-20T04:45:51;18.10;99.90
11043;DHT22;5574;48.786;10.120;2022-08-20T04:48:20;18.10;99.90
11043;DHT22;5574;48.786;10.120;2022-08-20T04:50:50;18.10;99.90
11043;DHT22;5574;48.786;10.120;2022-08-20T04:53:19;18.00;99.90
11043;DHT22;5574;48.786;10.120;2022-08-20T04:55:48;17.90;99.90
11043;DHT22;5574;48.786;10.120;2022-08-20T04:58:17;18.00;99.90
11043;DHT22;5574;48.786;10.120;2022-08-20T05:00:46;18.00;99.90
11043;DHT22;5574;48.786;10.120;2022-08-20T05:03:13;18.00;99.90
11043;DHT22;5574;48.786;10.120;2022-08-20T05:05:42;18.00;99.90
11043;DHT22;5574;48.786;10.120;2022-08-20T05:08:10;18.00;99.90
11043;DHT22;5574;48.786;10.120;2022-08-20T05:10:38;18.00;99.90
11043;DHT22;5574;48.786;10.120;2022-08-20T05:13:06;18.00;99.90
11043;DHT22;5574;48.786;10.120;2022-08-20T05:15:33;18.00;99.90
11043;DHT22;5574;48.786;10.120;2022-08-20T05:18:01;18.10;99.90
11043;DHT22;5574;48.786;10.120;2022-08-20T05:20:30;18.20;99.90
11043;DHT22;5574;48.786;10.120;2022-08-20T05:23:00;18.20;99.90
11043;DHT22;5574;48.786;10.120;2022-08-20T05:25:29;18.30;99.90
11043;DHT22;5574;48.786;10.120;2022-08-20T05:27:56;18.30;99.90
11043;DHT22;5574;48.786;10.120;2022-08-20T05:30:26;18.30;99.90
11043;DHT22;5574;48.786;10.120;2022-08-20T05:32:57;18.30;99.90
11043;DHT22;5574;48.786;10.120;2022-08-20T05:35:24;18.40;99.90
11043;DHT22;5574;48.786;10.120;2022-08-20T05:37:52;18.40;99.90
11043;DHT22;5574;48.786;10.120;2022-08-20T05:40:20;18.30;99.90
11043;DHT22;5574;48.786;10.120;2022-08-20T05:42:48;18.30;99.90
11043;DHT22;5574;48.786;10.120;2022-08-20T05:45:14;18.20;99.90
11043;DHT22;5574;48.786;10.120;2022-08-20T05:47:42;18.20;99.90
11043;DHT22;5574;48.786;10.120;2022-08-20T05:50:11;18.20;99.90
11043;DHT22;5574;48.786;10.120;2022-08-20T05:52:38;18.20;99.90
11043;DHT22;5574;48.786;10.120;2022-08-20T05:55:08;18.20;99.90
11043;DHT22;5574;48.786;10.120;2022-08-20T05:57:36;18.20;99.90
11043;DHT22;5574;48.786;10.120;2022-08-20T06:00:05;18.20;99.90
11043;DHT22;5574;48.786;10.120;2022-08-20T06:02:32;18.20;99.90
11043;DHT22;5574;48.786;10.120;2022-08-20T06:05:16;18.30;99.90
11043;DHT22;5574;48.786;10.120;2022-08-20T06:07:44;18.30;99.90
11043;DHT22;5574;48.786;10.120;2022-08-20T06:10:12;18.30;99.90
11043;DHT22;5574;48.786;10.120;2022-08-20T06:12:40;18.30;99.90
11043;DHT22;5574;48.786;10.120;2022-08-20T06:15:09;18.40;99.90
11043;DHT22;5574;48.786;10.120;2022-08-20T06:17:36;18.40;99.90
11043;DHT22;5574;48.786;10.120;2022-08-20T06:20:06;18.50;99.90
11043;DHT22;5574;48.786;10.120;2022-08-20T06:22:34;18.50;99.90
11043;DHT22;5574;48.786;10.120;2022-08-20T06:25:01;18.60;99.90
11043;DHT22;5574;48.786;10.120;2022-08-20T06:27:27;18.70;99.90
11043;DHT22;5574;48.786;10.120;2022-08-20T06:29:55;18.70;99.90
11043;DHT22;5574;48.786;10.120;2022-08-20T06:32:24;18.80;99.90
11043;DHT22;5574;48.786;10.120;2022-08-20T06:34:51;18.80;99.90
11043;DHT22;5574;48.786;10.120;2022-08-20T06:37:20;18.80;99.90
11043;DHT22;5574;48.786;10.120;2022-08-20T06:39:48;18.90;99.90
11043;DHT22;5574;48.786;10.120;2022-08-20T06:42:15;19.00;99.90
11043;DHT22;5574;48.786;10.120;2022-08-20T06:44:42;19.00;99.90
11043;DHT22;5574;48.786;10.120;2022-08-20T06:47:12;19.10;99.90
11043;DHT22;5574;48.786;10.120;2022-08-20T06:49:39;19.10;99.90
11043;DHT22;5574;48.786;10.120;2022-08-20T06:52:06;19.20;99.90
11043;DHT22;5574;48.786;10.120;2022-08-20T06:54:32;19.20;99.90
11043;DHT22;5574;48.786;10.120;2022-08-20T06:56:59;19.20;99.90
11043;DHT22;5574;48.786;10.120;2022-08-20T06:59:26;19.20;99.90
11043;DHT22;5574;48.786;10.120;2022-08-20T07:01:53;19.30;99.90
11043;DHT22;5574;48.786;10.120;2022-08-20T07:04:22;19.30;99.90
11043;DHT22;5574;48.786;10.120;2022-08-20T07:06:50;19.30;99.90
11043;DHT22;5574;48.786;10.120;2022-08-20T07:09:17;19.30;99.90
11043;DHT22;5574;48.786;10.120;2022-08-20T07:11:43;19.40;99.90
11043;DHT22;5574;48.786;10.120;2022-08-20T07:14:10;19.40;99.90
11043;DHT22;5574;48.786;10.120;2022-08-20T07:16:37;19.50;99.90
11043;DHT22;5574;48.786;10.120;2022-08-20T07:19:05;19.50;99.90
11043;DHT22;5574;48.786;10.120;2022-08-20T07:21:34;19.50;99.90
11043;DHT22;5574;48.786;10.120;2022-08-20T07:24:01;19.50;99.90
11043;DHT22;5574;48.786;10.120;2022-08-20T07:26:28;19.60;99.90
11043;DHT22;5574;48.786;10.120;2022-08-20T07:28:55;19.60;99.90
11043;DHT22;5574;48.786;10.120;2022-08-20T07:31:22;19.60;99.90
11043;DHT22;5574;48.786;10.120;2022-08-20T07:34:06;19.60;99.90
11043;DHT22;5574;48.786;10.120;2022-08-20T07:36:37;19.70;99.90
11043;DHT22;5574;48.786;10.120;2022-08-20T07:39:03;19.80;99.90
11043;DHT22;5574;48.786;10.120;2022-08-20T07:41:31;19.90;99.90
11043;DHT22;5574;48.786;10.120;2022-08-20T07:43:58;19.90;99.90
11043;DHT22;5574;48.786;10.120;2022-08-20T07:46:25;20.00;99.90
11043;DHT22;5574;48.786;10.120;2022-08-20T07:48:52;20.00;99.90
11043;DHT22;5574;48.786;10.120;2022-08-20T07:51:20;20.10;99.90
11043;DHT22;5574;48.786;10.120;2022-08-20T07:53:49;20.10;99.90
11043;DHT22;5574;48.786;10.120;2022-08-20T07:56:18;20.10;99.90
11043;DHT22;5574;48.786;10.120;2022-08-20T07:58:48;20.10;99.90
11043;DHT22;5574;48.786;10.120;2022-08-20T08:01:15;20.10;99.90
11043;DHT22;5574;48.786;10.120;2022-08-20T08:03:42;20.00;99.90
11043;DHT22;5574;48.786;10.120;2022-08-20T08:06:08;20.00;99.90
11043;DHT22;5574;48.786;10.120;2022-08-20T08:08:36;20.00;99.90
11043;DHT22;5574;48.786;10.120;2022-08-20T08:11:05;20.00;99.90
11043;DHT22;5574;48.786;10.120;2022-08-20T08:13:36;20.10;99.90
11043;DHT22;5574;48.786;10.120;2022-08-20T08:16:05;20.10;99.90
11043;DHT22;5574;48.786;10.120;2022-08-20T08:18:35;20.10;99.90
11043;DHT22;5574;48.786;10.120;2022-08-20T08:21:04;20.10;99.90
11043;DHT22;5574;48.786;10.120;2022-08-20T08:23:31;20.10;99.90
11043;DHT22;5574;48.786;10.120;2022-08-20T08:25:59;20.20;99.90
11043;DHT22;5574;48.786;10.120;2022-08-20T08:28:27;20.20;99.90
11043;DHT22;5574;48.786;10.120;2022-08-20T08:30:55;20.20;99.90
11043;DHT22;5574;48.786;10.120;2022-08-20T08:33:24;20.20;99.90
11043;DHT22;5574;48.786;10.120;2022-08-20T08:35:54;20.20;99.90
11043;DHT22;5574;48.786;10.120;2022-08-20T08:38:21;20.20;99.90
11043;DHT22;5574;48.786;10.120;2022-08-20T08:40:48;20.10;99.90
11043;DHT22;5574;48.786;10.120;2022-08-20T08:43:19;20.20;99.90
11043;DHT22;5574;48.786;10.120;2022-08-20T08:45:55;20.20;99.90
11043;DHT22;5574;48.786;10.120;2022-08-20T08:48:29;20.30;99.90
11043;DHT22;5574;48.786;10.120;2022-08-20T08:50:57;20.30;99.90
11043;DHT22;5574;48.786;10.120;2022-08-20T08:53:28;20.40;99.90
11043;DHT22;5574;48.786;10.120;2022-08-20T08:55:55;20.40;99.90
11043;DHT22;5574;48.786;10.120;2022-08-20T08:58:24;20.30;99.90
11043;DHT22;5574;48.786;10.120;2022-08-20T09:00:53;20.40;99.90
11043;DHT22;5574;48.786;10.120;2022-08-20T09:03:27;20.40;99.90
11043;DHT22;5574;48.786;10.120;2022-08-20T09:05:57;20.40;99.90
11043;DHT22;5574;48.786;10.120;2022-08-20T09:08:27;20.50;99.90
11043;DHT22;5574;48.786;10.120;2022-08-20T09:11:00;20.40;99.90
11043;DHT22;5574;48.786;10.120;2022-08-20T09:13:28;20.50;99.90
11043;DHT22;5574;48.786;10.120;2022-08-20T09:15:56;20.60;99.90
11043;DHT22;5574;48.786;10.120;2022-08-20T09:18:22;20.60;99.90
11043;DHT22;5574;48.786;10.120;2022-08-20T09:20:49;20.70;99.90
11043;DHT22;5574;48.786;10.120;2022-08-20T09:23:16;20.90;99.90
11043;DHT22;5574;48.786;10.120;2022-08-20T09:25:43;21.00;99.90
11043;DHT22;5574;48.786;10.120;2022-08-20T09:28:09;21.10;99.90
11043;DHT22;5574;48.786;10.120;2022-08-20T09:30:36;21.20;99.90
11043;DHT22;5574;48.786;10.120;2022-08-20T09:33:04;21.30;99.90
11043;DHT22;5574;48.786;10.120;2022-08-20T09:35:31;21.30;99.90
11043;DHT22;5574;48.786;10.120;2022-08-20T09:37:58;21.40;99.90
11043;DHT22;5574;48.786;10.120;2022-08-20T09:40:25;21.40;99.90
11043;DHT22;5574;48.786;10.120;2022-08-20T09:42:52;21.40;99.90
11043;DHT22;5574;48.786;10.120;2022-08-20T09:45:19;21.40;99.90
11043;DHT22;5574;48.786;10.120;2022-08-20T09:47:46;21.50;99.90
11043;DHT22;5574;48.786;10.120;2022-08-20T09:50:14;21.50;99.90
11043;DHT22;5574;48.786;10.120;2022-08-20T09:52:43;21.50;99.90
11043;DHT22;5574;48.786;10.120;2022-08-20T09:55:17;21.40;99.90
11043;DHT22;5574;48.786;10.120;2022-08-20T09:57:45;21.30;99.90
11043;DHT22;5574;48.786;10.120;2022-08-20T10:00:13;21.20;99.90
11043;DHT22;5574;48.786;10.120;2022-08-20T10:02:40;21.10;99.90
11043;DHT22;5574;48.786;10.120;2022-08-20T10:05:08;21.10;99.90
11043;DHT22;5574;48.786;10.120;2022-08-20T10:07:37;21.00;99.90
11043;DHT22;5574;48.786;10.120;2022-08-20T10:10:05;21.10;99.90
11043;DHT22;5574;48.786;10.120;2022-08-20T10:12:32;21.20;99.90
11043;DHT22;5574;48.786;10.120;2022-08-20T10:14:58;21.20;99.90
11043;DHT22;5574;48.786;10.120;2022-08-20T10:17:25;21.30;99.90
11043;DHT22;5574;48.786;10.120;2022-08-20T10:19:52;21.40;99.90
11043;DHT22;5574;48.786;10.120;2022-08-20T10:22:18;21.50;99.90
11043;DHT22;5574;48.786;10.120;2022-08-20T10:24:46;21.50;99.90
11043;DHT22;5574;48.786;10.120;2022-08-20T10:27:13;21.60;99.90
11043;DHT22;5574;48.786;10.120;2022-08-20T10:29:40;21.60;99.90
11043;DHT22;5574;48.786;10.120;2022-08-20T10:32:09;21.60;99.90
11043;DHT22;5574;48.786;10.120;2022-08-20T10:34:37;21.70;99.90
11043;DHT22;5574;48.786;10.120;2022-08-20T10:37:03;21.80;99.90
11043;DHT22;5574;48.786;10.120;2022-08-20T10:39:30;21.80;99.90
11043;DHT22;5574;48.786;10.120;2022-08-20T10:41:58;21.80;99.90
11043;DHT22;5574;48.786;10.120;2022-08-20T10:44:25;21.80;99.90
11043;DHT22;5574;48.786;10.120;2022-08-20T10:46:52;21.80;99.90
11043;DHT22;5574;48.786;10.120;2022-08-20T10:49:19;21.90;99.90
11043;DHT22;5574;48.786;10.120;2022-08-20T10:51:46;21.90;99.90
11043;DHT22;5574;48.786;10.120;2022-08-20T10:54:13;21.90;99.90
11043;DHT22;5574;48.786;10.120;2022-08-20T10:56:40;22.00;99.90
11043;DHT22;5574;48.786;10.120;2022-08-20T10:59:08;22.00;99.90
11043;DHT22;5574;48.786;10.120;2022-08-20T11:01:34;21.90;99.90
11043;DHT22;5574;48.786;10.120;2022-08-20T11:04:01;22.10;99.90
11043;DHT22;5574;48.786;10.120;2022-08-20T11:06:29;22.40;99.90
11043;DHT22;5574;48.786;10.120;2022-08-20T11:08:55;22.60;99.90
11043;DHT22;5574;48.786;10.120;2022-08-20T11:11:22;22.80;99.90
11043;DHT22;5574;48.786;10.120;2022-08-20T11:13:49;22.90;99.90
11043;DHT22;5574;48.786;10.120;2022-08-20T11:16:17;22.90;99.90
11043;DHT22;5574;48.786;10.120;2022-08-20T11:18:43;22.90;99.90
11043;DHT22;5574;48.786;10.120;2022-08-20T11:21:10;22.90;99.90
11043;DHT22;5574;48.786;10.120;2022-08-20T11:23:37;22.90;99.90
11043;DHT22;5574;48.786;10.120;2022-08-20T11:26:03;22.90;99.90
11043;DHT22;5574;48.786;10.120;2022-08-20T11:28:30;23.00;99.90
11043;DHT22;5574;48.786;10.120;2022-08-20T11:30:58;23.00;99.90
11043;DHT22;5574;48.786;10.120;2022-08-20T11:33:26;23.00;99.90
11043;DHT22;5574;48.786;10.120;2022-08-20T11:35:53;22.90;99.90
11043;DHT22;5574;48.786;10.120;2022-08-20T11:38:19;23.00;99.90
11043;DHT22;5574;48.786;10.120;2022-08-20T11:40:46;23.10;99.90
11043;DHT22;5574;48.786;10.120;2022-08-20T11:43:13;23.00;99.90
11043;DHT22;5574;48.786;10.120;2022-08-20T11:45:40;23.00;99.90
11043;DHT22;5574;48.786;10.120;2022-08-20T11:48:07;23.20;99.90
11043;DHT22;5574;48.786;10.120;2022-08-20T11:50:35;23.10;99.90
11043;DHT22;5574;48.786;10.120;2022-08-20T11:53:01;23.00;99.90
11043;DHT22;5574;48.786;10.120;2022-08-20T11:55:28;22.80;99.90
11043;DHT22;5574;48.786;10.120;2022-08-20T11:57:55;22.60;99.90
11043;DHT22;5574;48.786;10.120;2022-08-20T12:00:22;22.40;99.90
11043;DHT22;5574;48.786;10.120;2022-08-20T12:02:49;22.30;99.90
11043;DHT22;5574;48.786;10.120;2022-08-20T12:05:17;22.10;99.90
11043;DHT22;5574;48.786;10.120;2022-08-20T12:07:45;22.00;99.90
11043;DHT22;5574;48.786;10.120;2022-08-20T12:10:13;21.80;99.90
11043;DHT22;5574;48.786;10.120;2022-08-20T12:12:40;21.70;99.90
11043;DHT22;5574;48.786;10.120;2022-08-20T12:15:08;21.50;99.90
11043;DHT22;5574;48.786;10.120;2022-08-20T12:17:35;21.40;99.90
11043;DHT22;5574;48.786;10.120;2022-08-20T12:20:06;21.40;99.90
11043;DHT22;5574;48.786;10.120;2022-08-20T12:22:33;21.20;99.90
11043;DHT22;5574;48.786;10.120;2022-08-20T12:25:01;21.10;99.90
11043;DHT22;5574;48.786;10.120;2022-08-20T12:27:29;21.00;99.90
11043;DHT22;5574;48.786;10.120;2022-08-20T12:29:58;20.90;99.90
11043;DHT22;5574;48.786;10.120;2022-08-20T12:32:27;20.80;99.90
11043;DHT22;5574;48.786;10.120;2022-08-20T12:34:54;20.80;99.90
11043;DHT22;5574;48.786;10.120;2022-08-20T12:37:23;20.70;99.90
11043;DHT22;5574;48.786;10.120;2022-08-20T12:39:55;20.60;99.90
11043;DHT22;5574;48.786;10.120;2022-08-20T12:42:25;20.60;99.90
11043;DHT22;5574;48.786;10.120;2022-08-20T12:44:52;20.60;99.90
11043;DHT22;5574;48.786;10.120;2022-08-20T12:47:22;20.60;99.90
11043;DHT22;5574;48.786;10.120;2022-08-20T12:49:52;20.50;99.90
11043;DHT22;5574;48.786;10.120;2022-08-20T12:52:20;20.60;99.90
11043;DHT22;5574;48.786;10.120;2022-08-20T12:54:47;20.60;99.90
11043;DHT22;5574;48.786;10.120;2022-08-20T12:57:15;20.70;99.90
11043;DHT22;5574;48.786;10.120;2022-08-20T12:59:43;20.60;99.90
11043;DHT22;5574;48.786;10.120;2022-08-20T13:02:10;20.60;99.90
11043;DHT22;5574;48.786;10.120;2022-08-20T13:04:36;20.70;99.90
11043;DHT22;5574;48.786;10.120;2022-08-20T13:07:04;20.80;99.90
11043;DHT22;5574;48.786;10.120;2022-08-20T13:09:32;20.80;99.90
11043;DHT22;5574;48.786;10.120;2022-08-20T13:11:58;20.80;99.90
11043;DHT22;5574;48.786;10.120;2022-08-20T13:14:25;20.80;99.90
11043;DHT22;5574;48.786;10.120;2022-08-20T13:16:57;20.90;99.90
11043;DHT22;5574;48.786;10.120;2022-08-20T13:19:25;20.90;99.90
11043;DHT22;5574;48.786;10.120;2022-08-20T13:21:52;20.90;99.90
11043;DHT22;5574;48.786;10.120;2022-08-20T13:24:20;20.90;99.90
11043;DHT22;5574;48.786;10.120;2022-08-20T13:26:47;20.80;99.90
11043;DHT22;5574;48.786;10.120;2022-08-20T13:29:15;20.70;99.90
11043;DHT22;5574;48.786;10.120;2022-08-20T13:31:42;20.50;99.90
11043;DHT22;5574;48.786;10.120;2022-08-20T13:34:10;20.30;99.90
11043;DHT22;5574;48.786;10.120;2022-08-20T13:36:37;20.10;99.90
11043;DHT22;5574;48.786;10.120;2022-08-20T13:39:05;19.90;99.90
11043;DHT22;5574;48.786;10.120;2022-08-20T13:41:32;19.80;99.90
11043;DHT22;5574;48.786;10.120;2022-08-20T13:43:59;19.70;99.90
11043;DHT22;5574;48.786;10.120;2022-08-20T13:46:26;19.60;99.90
11043;DHT22;5574;48.786;10.120;2022-08-20T13:48:53;19.50;99.90
11043;DHT22;5574;48.786;10.120;2022-08-20T13:51:21;19.40;99.90
11043;DHT22;5574;48.786;10.120;2022-08-20T13:53:47;19.40;99.90
11043;DHT22;5574;48.786;10.120;2022-08-20T13:56:14;19.30;99.90
11043;DHT22;5574;48.786;10.120;2022-08-20T13:58:41;19.30;99.90
11043;DHT22;5574;48.786;10.120;2022-08-20T14:01:07;19.30;99.90
11043;DHT22;5574;48.786;10.120;2022-08-20T14:03:34;19.30;99.90
11043;DHT22;5574;48.786;10.120;2022-08-20T14:06:01;19.30;99.90
11043;DHT22;5574;48.786;10.120;2022-08-20T14:08:29;19.20;99.90
11043;DHT22;5574;48.786;10.120;2022-08-20T14:10:56;19.20;99.90
11043;DHT22;5574;48.786;10.120;2022-08-20T14:13:25;19.20;99.90
11043;DHT22;5574;48.786;10.120;2022-08-20T14:15:52;19.20;99.90
11043;DHT22;5574;48.786;10.120;2022-08-20T14:18:19;19.20;99.90
11043;DHT22;5574;48.786;10.120;2022-08-20T14:20:46;19.20;99.90
11043;DHT22;5574;48.786;10.120;2022-08-20T14:23:13;19.20;99.90
11043;DHT22;5574;48.786;10.120;2022-08-20T14:25:44;19.20;99.90
11043;DHT22;5574;48.786;10.120;2022-08-20T14:28:13;19.20;99.90
11043;DHT22;5574;48.786;10.120;2022-08-20T14:30:41;19.20;99.90
11043;DHT22;5574;48.786;10.120;2022-08-20T14:33:08;19.10;99.90
11043;DHT22;5574;48.786;10.120;2022-08-20T14:35:35;19.20;99.90
11043;DHT22;5574;48.786;10.120;2022-08-20T14:38:02;19.20;99.90
11043;DHT22;5574;48.786;10.120;2022-08-20T14:40:29;19.20;99.90
11043;DHT22;5574;48.786;10.120;2022-08-20T14:45:33;19.30;99.90
11043;DHT22;5574;48.786;10.120;2022-08-20T14:47:59;19.20;99.90
11043;DHT22;5574;48.786;10.120;2022-08-20T14:50:28;19.20;99.90
11043;DHT22;5574;48.786;10.120;2022-08-20T14:52:55;19.30;99.90
11043;DHT22;5574;48.786;10.120;2022-08-20T14:55:25;19.20;99.90
11043;DHT22;5574;48.786;10.120;2022-08-20T14:57:53;19.20;99.90
11043;DHT22;5574;48.786;10.120;2022-08-20T15:00:27;19.30;99.90
11043;DHT22;5574;48.786;10.120;2022-08-20T15:02:55;19.30;99.90
11043;DHT22;5574;48.786;10.120;2022-08-20T15:05:22;19.20;99.90
11043;DHT22;5574;48.786;10.120;2022-08-20T15:07:51;19.30;99.90
11043;DHT22;5574;48.786;10.120;2022-08-20T15:10:20;19.30;99.90
11043;DHT22;5574;48.786;10.120;2022-08-20T15:12:48;19.40;99.90
11043;DHT22;5574;48.786;10.120;2022-08-20T15:15:15;19.40;99.90
11043;DHT22;5574;48.786;10.120;2022-08-20T15:17:44;19.50;99.90
11043;DHT22;5574;48.786;10.120;2022-08-20T15:20:14;19.60;99.90
11043;DHT22;5574;48.786;10.120;2022-08-20T15:22:41;19.60;99.90
11043;DHT22;5574;48.786;10.120;2022-08-20T15:25:12;19.60;99.90
11043;DHT22;5574;48.786;10.120;2022-08-20T15:27:39;19.70;99.90
11043;DHT22;5574;48.786;10.120;2022-08-20T15:30:09;19.70;99.90
11043;DHT22;5574;48.786;10.120;2022-08-20T15:32:36;19.70;99.90
11043;DHT22;5574;48.786;10.120;2022-08-20T15:35:04;19.80;99.90
11043;DHT22;5574;48.786;10.120;2022-08-20T15:37:33;19.80;99.90